sensor_id;sensor_type;location;lat;lon;timestamp;P1;durP1;ratioP1;P2;durP2;ratioP2
65871;SDS011;52653;50.080;21.992;2023-07-02T00:00:34;36.50;;;33.00;;
65871;SDS011;52653;50.080;21.992;2023-07-02T00:03:28;40.70;;;36.80;;
65871;SDS011;52653;50.080;21.992;2023-07-02T00:06:01;41.10;;;37.10;;
65871;SDS011;52653;50.080;21.992;2023-07-02T00:08:34;41.70;;;37.60;;
65871;SDS011;52653;50.080;21.992;2023-07-02T00:11:07;39.80;;;35.90;;
65871;SDS011;52653;50.080;21.992;2023-07-02T00:13:42;39.20;;;35.40;;
65871;SDS011;52653;50.080;21.992;2023-07-02T00:16:16;39.10;;;35.20;;
65871;SDS011;52653;50.080;21.992;2023-07-02T00:18:49;39.00;;;35.20;;
65871;SDS011;52653;50.080;21.992;2023-07-02T00:21:23;39.30;;;35.50;;
65871;SDS011;52653;50.080;21.992;2023-07-02T00:23:57;40.30;;;36.40;;
65871;SDS011;52653;50.080;21.992;2023-07-02T00:26:31;39.10;;;35.40;;
65871;SDS011;52653;50.080;21.992;2023-07-02T00:29:05;39.30;;;35.50;;
65871;SDS011;52653;50.080;21.992;2023-07-02T00:31:42;37.40;;;33.70;;
65871;SDS011;52653;50.080;21.992;2023-07-02T00:34:14;36.60;;;33.00;;
65871;SDS011;52653;50.080;21.992;2023-07-02T00:36:47;34.70;;;31.30;;
65871;SDS011;52653;50.080;21.992;2023-07-02T00:39:22;35.10;;;31.70;;
65871;SDS011;52653;50.080;21.992;2023-07-02T00:41:59;36.00;;;32.60;;
65871;SDS011;52653;50.080;21.992;2023-07-02T00:44:34;35.60;;;32.20;;
65871;SDS011;52653;50.080;21.992;2023-07-02T00:47:11;35.40;;;32.10;;
65871;SDS011;52653;50.080;21.992;2023-07-02T00:49:47;34.10;;;30.80;;
65871;SDS011;52653;50.080;21.992;2023-07-02T00:52:20;34.70;;;31.40;;
65871;SDS011;52653;50.080;21.992;2023-07-02T00:54:59;33.50;;;30.40;;
65871;SDS011;52653;50.080;21.992;2023-07-02T00:57:31;33.50;;;30.30;;
65871;SDS011;52653;50.080;21.992;2023-07-02T01:00:10;34.40;;;31.00;;
65871;SDS011;52653;50.080;21.992;2023-07-02T01:02:45;34.60;;;31.20;;
65871;SDS011;52653;50.080;21.992;2023-07-02T01:05:29;33.80;;;30.70;;
65871;SDS011;52653;50.080;21.992;2023-07-02T01:08:07;34.20;;;31.00;;
65871;SDS011;52653;50.080;21.992;2023-07-02T01:10:41;33.80;;;30.60;;
65871;SDS011;52653;50.080;21.992;2023-07-02T01:13:16;32.60;;;29.40;;
65871;SDS011;52653;50.080;21.992;2023-07-02T01:15:52;34.20;;;30.90;;
65871;SDS011;52653;50.080;21.992;2023-07-02T01:18:25;32.70;;;29.40;;
65871;SDS011;52653;50.080;21.992;2023-07-02T01:21:01;33.80;;;30.60;;
65871;SDS011;52653;50.080;21.992;2023-07-02T01:23:35;33.60;;;30.40;;
65871;SDS011;52653;50.080;21.992;2023-07-02T01:26:09;32.50;;;29.50;;
65871;SDS011;52653;50.080;21.992;2023-07-02T01:28:42;33.50;;;30.30;;
65871;SDS011;52653;50.080;21.992;2023-07-02T01:31:15;33.60;;;30.50;;
65871;SDS011;52653;50.080;21.992;2023-07-02T01:33:48;33.70;;;30.40;;
65871;SDS011;52653;50.080;21.992;2023-07-02T01:36:21;33.40;;;30.30;;
65871;SDS011;52653;50.080;21.992;2023-07-02T01:38:54;34.00;;;30.80;;
65871;SDS011;52653;50.080;21.992;2023-07-02T01:41:27;36.20;;;32.70;;
65871;SDS011;52653;50.080;21.992;2023-07-02T01:44:00;34.90;;;31.80;;
65871;SDS011;52653;50.080;21.992;2023-07-02T01:46:34;33.50;;;30.40;;
65871;SDS011;52653;50.080;21.992;2023-07-02T01:49:07;36.00;;;32.80;;
65871;SDS011;52653;50.080;21.992;2023-07-02T01:51:40;35.20;;;31.90;;
65871;SDS011;52653;50.080;21.992;2023-07-02T01:54:14;36.80;;;33.40;;
65871;SDS011;52653;50.080;21.992;2023-07-02T01:56:48;36.30;;;32.60;;
65871;SDS011;52653;50.080;21.992;2023-07-02T01:59:21;36.90;;;33.40;;
65871;SDS011;52653;50.080;21.992;2023-07-02T02:01:54;36.70;;;33.20;;
65871;SDS011;52653;50.080;21.992;2023-07-02T02:04:27;36.60;;;33.10;;
65871;SDS011;52653;50.080;21.992;2023-07-02T02:07:00;34.60;;;31.40;;
65871;SDS011;52653;50.080;21.992;2023-07-02T02:09:34;35.60;;;32.30;;
65871;SDS011;52653;50.080;21.992;2023-07-02T02:12:07;34.60;;;31.40;;
65871;SDS011;52653;50.080;21.992;2023-07-02T02:14:40;33.30;;;30.30;;
65871;SDS011;52653;50.080;21.992;2023-07-02T02:17:13;33.30;;;30.20;;
65871;SDS011;52653;50.080;21.992;2023-07-02T02:19:46;35.40;;;32.00;;
65871;SDS011;52653;50.080;21.992;2023-07-02T02:22:20;34.30;;;31.20;;
65871;SDS011;52653;50.080;21.992;2023-07-02T02:24:52;33.90;;;30.80;;
65871;SDS011;52653;50.080;21.992;2023-07-02T02:27:25;34.60;;;31.30;;
65871;SDS011;52653;50.080;21.992;2023-07-02T02:29:58;33.20;;;30.00;;
65871;SDS011;52653;50.080;21.992;2023-07-02T02:32:33;33.10;;;30.00;;
65871;SDS011;52653;50.080;21.992;2023-07-02T02:35:10;33.30;;;30.20;;
65871;SDS011;52653;50.080;21.992;2023-07-02T02:37:43;33.00;;;29.90;;
65871;SDS011;52653;50.080;21.992;2023-07-02T02:40:16;33.70;;;30.60;;
65871;SDS011;52653;50.080;21.992;2023-07-02T02:42:48;32.60;;;29.50;;
65871;SDS011;52653;50.080;21.992;2023-07-02T02:45:21;33.60;;;30.40;;
65871;SDS011;52653;50.080;21.992;2023-07-02T02:47:56;33.90;;;30.80;;
65871;SDS011;52653;50.080;21.992;2023-07-02T02:50:29;33.50;;;30.40;;
65871;SDS011;52653;50.080;21.992;2023-07-02T02:53:02;32.60;;;29.60;;
65871;SDS011;52653;50.080;21.992;2023-07-02T02:55:35;32.80;;;29.90;;
65871;SDS011;52653;50.080;21.992;2023-07-02T02:58:09;32.90;;;29.50;;
65871;SDS011;52653;50.080;21.992;2023-07-02T03:00:44;31.60;;;28.60;;
65871;SDS011;52653;50.080;21.992;2023-07-02T03:03:19;33.80;;;30.70;;
65871;SDS011;52653;50.080;21.992;2023-07-02T03:05:56;30.40;;;27.50;;
65871;SDS011;52653;50.080;21.992;2023-07-02T03:08:29;31.80;;;28.70;;
65871;SDS011;52653;50.080;21.992;2023-07-02T03:11:03;30.40;;;27.60;;
65871;SDS011;52653;50.080;21.992;2023-07-02T03:13:40;31.50;;;28.40;;
65871;SDS011;52653;50.080;21.992;2023-07-02T03:16:13;31.70;;;28.60;;
65871;SDS011;52653;50.080;21.992;2023-07-02T03:18:46;31.70;;;28.80;;
65871;SDS011;52653;50.080;21.992;2023-07-02T03:21:19;31.80;;;28.80;;
65871;SDS011;52653;50.080;21.992;2023-07-02T03:23:53;31.60;;;28.60;;
65871;SDS011;52653;50.080;21.992;2023-07-02T03:26:26;30.50;;;27.70;;
65871;SDS011;52653;50.080;21.992;2023-07-02T03:28:59;30.90;;;28.00;;
65871;SDS011;52653;50.080;21.992;2023-07-02T03:31:31;30.40;;;27.40;;
65871;SDS011;52653;50.080;21.992;2023-07-02T03:34:06;30.70;;;27.80;;
65871;SDS011;52653;50.080;21.992;2023-07-02T03:36:40;29.80;;;27.00;;
65871;SDS011;52653;50.080;21.992;2023-07-02T03:39:13;29.60;;;26.90;;
65871;SDS011;52653;50.080;21.992;2023-07-02T03:41:46;30.20;;;27.30;;
65871;SDS011;52653;50.080;21.992;2023-07-02T03:44:19;28.20;;;25.50;;
65871;SDS011;52653;50.080;21.992;2023-07-02T03:46:52;28.50;;;25.90;;
65871;SDS011;52653;50.080;21.992;2023-07-02T03:49:27;27.50;;;25.00;;
65871;SDS011;52653;50.080;21.992;2023-07-02T03:52:00;28.10;;;25.50;;
65871;SDS011;52653;50.080;21.992;2023-07-02T03:54:33;26.80;;;24.40;;
65871;SDS011;52653;50.080;21.992;2023-07-02T03:57:06;26.80;;;24.20;;
65871;SDS011;52653;50.080;21.992;2023-07-02T03:59:48;27.40;;;24.80;;
65871;SDS011;52653;50.080;21.992;2023-07-02T04:02:21;25.60;;;23.10;;
65871;SDS011;52653;50.080;21.992;2023-07-02T04:05:04;25.30;;;23.10;;
65871;SDS011;52653;50.080;21.992;2023-07-02T04:07:37;24.40;;;22.10;;
65871;SDS011;52653;50.080;21.992;2023-07-02T04:10:22;24.30;;;21.70;;
65871;SDS011;52653;50.080;21.992;2023-07-02T04:12:58;24.20;;;22.00;;
65871;SDS011;52653;50.080;21.992;2023-07-02T04:15:30;24.00;;;21.90;;
65871;SDS011;52653;50.080;21.992;2023-07-02T04:18:03;24.00;;;21.80;;
65871;SDS011;52653;50.080;21.992;2023-07-02T04:20:41;24.10;;;22.00;;
65871;SDS011;52653;50.080;21.992;2023-07-02T04:23:14;24.20;;;22.00;;
65871;SDS011;52653;50.080;21.992;2023-07-02T04:25:47;22.60;;;20.60;;
65871;SDS011;52653;50.080;21.992;2023-07-02T04:28:40;23.20;;;21.10;;
65871;SDS011;52653;50.080;21.992;2023-07-02T04:31:13;22.40;;;20.20;;
65871;SDS011;52653;50.080;21.992;2023-07-02T04:33:46;22.60;;;20.60;;
65871;SDS011;52653;50.080;21.992;2023-07-02T04:36:19;22.70;;;20.70;;
65871;SDS011;52653;50.080;21.992;2023-07-02T04:38:51;23.30;;;21.10;;
65871;SDS011;52653;50.080;21.992;2023-07-02T04:41:26;21.40;;;19.50;;
65871;SDS011;52653;50.080;21.992;2023-07-02T04:43:59;21.90;;;19.90;;
65871;SDS011;52653;50.080;21.992;2023-07-02T04:46:32;21.20;;;19.20;;
65871;SDS011;52653;50.080;21.992;2023-07-02T04:49:08;19.50;;;17.80;;
65871;SDS011;52653;50.080;21.992;2023-07-02T04:51:40;19.60;;;17.80;;
65871;SDS011;52653;50.080;21.992;2023-07-02T04:54:13;18.20;;;16.40;;
65871;SDS011;52653;50.080;21.992;2023-07-02T04:56:46;18.30;;;16.50;;
65871;SDS011;52653;50.080;21.992;2023-07-02T04:59:23;17.50;;;15.90;;
65871;SDS011;52653;50.080;21.992;2023-07-02T05:01:56;18.50;;;16.70;;
65871;SDS011;52653;50.080;21.992;2023-07-02T05:04:33;17.40;;;15.90;;
65871;SDS011;52653;50.080;21.992;2023-07-02T05:07:08;17.90;;;16.20;;
65871;SDS011;52653;50.080;21.992;2023-07-02T05:09:40;17.50;;;15.90;;
65871;SDS011;52653;50.080;21.992;2023-07-02T05:12:13;17.90;;;16.30;;
65871;SDS011;52653;50.080;21.992;2023-07-02T05:14:47;17.20;;;15.60;;
65871;SDS011;52653;50.080;21.992;2023-07-02T05:17:20;17.00;;;15.50;;
65871;SDS011;52653;50.080;21.992;2023-07-02T05:19:53;17.10;;;15.70;;
65871;SDS011;52653;50.080;21.992;2023-07-02T05:22:26;16.20;;;14.80;;
65871;SDS011;52653;50.080;21.992;2023-07-02T05:24:59;16.60;;;15.10;;
65871;SDS011;52653;50.080;21.992;2023-07-02T05:27:35;16.70;;;15.10;;
65871;SDS011;52653;50.080;21.992;2023-07-02T05:30:09;16.50;;;15.00;;
65871;SDS011;52653;50.080;21.992;2023-07-02T05:32:42;16.40;;;14.90;;
65871;SDS011;52653;50.080;21.992;2023-07-02T05:35:18;15.90;;;14.50;;
65871;SDS011;52653;50.080;21.992;2023-07-02T05:37:53;16.60;;;15.20;;
65871;SDS011;52653;50.080;21.992;2023-07-02T05:40:25;16.00;;;14.50;;
65871;SDS011;52653;50.080;21.992;2023-07-02T05:42:58;16.00;;;14.50;;
65871;SDS011;52653;50.080;21.992;2023-07-02T05:45:31;16.40;;;14.80;;
65871;SDS011;52653;50.080;21.992;2023-07-02T05:48:03;16.20;;;14.70;;
65871;SDS011;52653;50.080;21.992;2023-07-02T05:50:36;15.90;;;14.40;;
65871;SDS011;52653;50.080;21.992;2023-07-02T05:53:10;16.40;;;14.90;;
65871;SDS011;52653;50.080;21.992;2023-07-02T05:55:43;15.60;;;14.20;;
65871;SDS011;52653;50.080;21.992;2023-07-02T05:58:16;15.40;;;14.00;;
65871;SDS011;52653;50.080;21.992;2023-07-02T06:00:57;15.70;;;14.20;;
65871;SDS011;52653;50.080;21.992;2023-07-02T06:03:31;15.20;;;13.90;;
65871;SDS011;52653;50.080;21.992;2023-07-02T06:06:05;15.20;;;13.80;;
65871;SDS011;52653;50.080;21.992;2023-07-02T06:08:38;15.30;;;13.90;;
65871;SDS011;52653;50.080;21.992;2023-07-02T06:11:11;15.30;;;13.90;;
65871;SDS011;52653;50.080;21.992;2023-07-02T06:13:47;15.30;;;13.80;;
65871;SDS011;52653;50.080;21.992;2023-07-02T06:16:20;15.30;;;13.80;;
65871;SDS011;52653;50.080;21.992;2023-07-02T06:18:53;14.90;;;13.50;;
65871;SDS011;52653;50.080;21.992;2023-07-02T06:21:26;15.30;;;13.90;;
65871;SDS011;52653;50.080;21.992;2023-07-02T06:24:00;14.90;;;13.60;;
65871;SDS011;52653;50.080;21.992;2023-07-02T06:26:35;14.90;;;13.60;;
65871;SDS011;52653;50.080;21.992;2023-07-02T06:29:08;15.50;;;14.00;;
65871;SDS011;52653;50.080;21.992;2023-07-02T06:31:41;14.50;;;13.30;;
65871;SDS011;52653;50.080;21.992;2023-07-02T06:34:13;13.80;;;12.60;;
65871;SDS011;52653;50.080;21.992;2023-07-02T06:36:46;14.80;;;13.50;;
65871;SDS011;52653;50.080;21.992;2023-07-02T06:39:18;14.10;;;12.90;;
65871;SDS011;52653;50.080;21.992;2023-07-02T06:41:51;14.80;;;13.40;;
65871;SDS011;52653;50.080;21.992;2023-07-02T06:44:29;15.00;;;13.70;;
65871;SDS011;52653;50.080;21.992;2023-07-02T06:47:01;13.50;;;12.30;;
65871;SDS011;52653;50.080;21.992;2023-07-02T06:49:35;13.90;;;12.60;;
65871;SDS011;52653;50.080;21.992;2023-07-02T06:52:09;14.50;;;13.20;;
65871;SDS011;52653;50.080;21.992;2023-07-02T06:54:41;13.80;;;12.60;;
65871;SDS011;52653;50.080;21.992;2023-07-02T06:57:14;14.40;;;13.10;;
65871;SDS011;52653;50.080;21.992;2023-07-02T06:59:47;14.30;;;12.80;;
65871;SDS011;52653;50.080;21.992;2023-07-02T07:02:20;13.00;;;11.80;;
65871;SDS011;52653;50.080;21.992;2023-07-02T07:04:54;13.00;;;11.80;;
65871;SDS011;52653;50.080;21.992;2023-07-02T07:07:30;13.00;;;11.80;;
65871;SDS011;52653;50.080;21.992;2023-07-02T07:10:03;13.10;;;11.70;;
65871;SDS011;52653;50.080;21.992;2023-07-02T07:12:37;12.40;;;11.20;;
65871;SDS011;52653;50.080;21.992;2023-07-02T07:15:11;13.30;;;12.10;;
65871;SDS011;52653;50.080;21.992;2023-07-02T07:17:44;13.00;;;11.50;;
65871;SDS011;52653;50.080;21.992;2023-07-02T07:20:17;12.50;;;11.30;;
65871;SDS011;52653;50.080;21.992;2023-07-02T07:22:50;12.90;;;11.70;;
65871;SDS011;52653;50.080;21.992;2023-07-02T07:25:23;12.40;;;11.20;;
65871;SDS011;52653;50.080;21.992;2023-07-02T07:27:57;14.70;;;10.30;;
65871;SDS011;52653;50.080;21.992;2023-07-02T07:30:30;12.10;;;10.90;;
65871;SDS011;52653;50.080;21.992;2023-07-02T07:33:03;12.20;;;10.90;;
65871;SDS011;52653;50.080;21.992;2023-07-02T07:35:36;12.90;;;11.60;;
65871;SDS011;52653;50.080;21.992;2023-07-02T07:38:08;11.80;;;10.70;;
65871;SDS011;52653;50.080;21.992;2023-07-02T07:40:43;11.30;;;10.10;;
65871;SDS011;52653;50.080;21.992;2023-07-02T07:43:16;11.20;;;10.10;;
65871;SDS011;52653;50.080;21.992;2023-07-02T07:45:49;12.30;;;10.90;;
65871;SDS011;52653;50.080;21.992;2023-07-02T07:48:24;11.50;;;10.20;;
65871;SDS011;52653;50.080;21.992;2023-07-02T07:50:57;11.60;;;10.10;;
65871;SDS011;52653;50.080;21.992;2023-07-02T07:53:30;11.50;;;10.10;;
65871;SDS011;52653;50.080;21.992;2023-07-02T07:56:03;10.90;;;9.90;;
65871;SDS011;52653;50.080;21.992;2023-07-02T07:58:35;12.60;;;9.50;;
65871;SDS011;52653;50.080;21.992;2023-07-02T08:01:08;10.50;;;9.40;;
65871;SDS011;52653;50.080;21.992;2023-07-02T08:03:43;11.10;;;10.00;;
65871;SDS011;52653;50.080;21.992;2023-07-02T08:06:15;11.20;;;10.00;;
65871;SDS011;52653;50.080;21.992;2023-07-02T08:08:48;10.10;;;8.50;;
65871;SDS011;52653;50.080;21.992;2023-07-02T08:11:21;10.60;;;8.50;;
65871;SDS011;52653;50.080;21.992;2023-07-02T08:13:54;10.20;;;8.90;;
65871;SDS011;52653;50.080;21.992;2023-07-02T08:16:27;10.10;;;9.10;;
65871;SDS011;52653;50.080;21.992;2023-07-02T08:19:00;9.60;;;8.60;;
65871;SDS011;52653;50.080;21.992;2023-07-02T08:21:33;11.20;;;8.40;;
65871;SDS011;52653;50.080;21.992;2023-07-02T08:24:06;9.90;;;9.00;;
65871;SDS011;52653;50.080;21.992;2023-07-02T08:26:39;9.70;;;8.70;;
65871;SDS011;52653;50.080;21.992;2023-07-02T08:29:14;9.90;;;8.90;;
65871;SDS011;52653;50.080;21.992;2023-07-02T08:31:47;9.10;;;8.20;;
65871;SDS011;52653;50.080;21.992;2023-07-02T08:34:20;9.10;;;7.90;;
65871;SDS011;52653;50.080;21.992;2023-07-02T08:36:53;9.90;;;8.90;;
65871;SDS011;52653;50.080;21.992;2023-07-02T08:39:26;10.60;;;8.70;;
65871;SDS011;52653;50.080;21.992;2023-07-02T08:42:00;9.90;;;8.90;;
65871;SDS011;52653;50.080;21.992;2023-07-02T08:44:32;10.20;;;7.80;;
65871;SDS011;52653;50.080;21.992;2023-07-02T08:47:06;9.10;;;8.10;;
65871;SDS011;52653;50.080;21.992;2023-07-02T08:49:40;10.70;;;7.10;;
65871;SDS011;52653;50.080;21.992;2023-07-02T08:52:16;8.90;;;8.00;;
65871;SDS011;52653;50.080;21.992;2023-07-02T08:54:49;9.10;;;7.10;;
65871;SDS011;52653;50.080;21.992;2023-07-02T08:57:22;8.40;;;6.60;;
65871;SDS011;52653;50.080;21.992;2023-07-02T08:59:55;8.90;;;6.70;;
65871;SDS011;52653;50.080;21.992;2023-07-02T09:02:33;8.40;;;6.60;;
65871;SDS011;52653;50.080;21.992;2023-07-02T09:05:08;8.40;;;7.00;;
65871;SDS011;52653;50.080;21.992;2023-07-02T09:07:45;8.80;;;7.90;;
65871;SDS011;52653;50.080;21.992;2023-07-02T09:10:29;9.10;;;7.90;;
65871;SDS011;52653;50.080;21.992;2023-07-02T09:13:05;7.90;;;6.70;;
65871;SDS011;52653;50.080;21.992;2023-07-02T09:15:41;9.80;;;7.20;;
65871;SDS011;52653;50.080;21.992;2023-07-02T09:18:20;11.00;;;7.40;;
65871;SDS011;52653;50.080;21.992;2023-07-02T09:20:55;8.70;;;7.30;;
65871;SDS011;52653;50.080;21.992;2023-07-02T09:23:34;8.20;;;7.20;;
65871;SDS011;52653;50.080;21.992;2023-07-02T09:26:08;7.90;;;6.90;;
65871;SDS011;52653;50.080;21.992;2023-07-02T09:28:59;8.60;;;7.50;;
65871;SDS011;52653;50.080;21.992;2023-07-02T09:31:42;9.70;;;7.50;;
65871;SDS011;52653;50.080;21.992;2023-07-02T09:34:35;8.30;;;7.40;;
65871;SDS011;52653;50.080;21.992;2023-07-02T09:37:12;10.80;;;7.30;;
65871;SDS011;52653;50.080;21.992;2023-07-02T09:39:47;8.60;;;7.00;;
65871;SDS011;52653;50.080;21.992;2023-07-02T09:42:22;8.10;;;6.70;;
65871;SDS011;52653;50.080;21.992;2023-07-02T09:44:58;11.00;;;6.90;;
65871;SDS011;52653;50.080;21.992;2023-07-02T09:47:32;8.50;;;6.90;;
65871;SDS011;52653;50.080;21.992;2023-07-02T09:50:14;9.50;;;7.90;;
65871;SDS011;52653;50.080;21.992;2023-07-02T09:52:48;7.90;;;7.10;;
65871;SDS011;52653;50.080;21.992;2023-07-02T09:55:22;9.10;;;6.90;;
65871;SDS011;52653;50.080;21.992;2023-07-02T09:57:54;9.00;;;7.00;;
65871;SDS011;52653;50.080;21.992;2023-07-02T10:00:30;10.80;;;7.50;;
65871;SDS011;52653;50.080;21.992;2023-07-02T10:03:04;8.60;;;7.20;;
65871;SDS011;52653;50.080;21.992;2023-07-02T10:05:37;9.40;;;6.90;;
65871;SDS011;52653;50.080;21.992;2023-07-02T10:08:14;8.90;;;6.60;;
65871;SDS011;52653;50.080;21.992;2023-07-02T10:10:49;8.70;;;6.90;;
65871;SDS011;52653;50.080;21.992;2023-07-02T10:13:28;8.10;;;7.20;;
65871;SDS011;52653;50.080;21.992;2023-07-02T10:16:04;8.10;;;6.90;;
65871;SDS011;52653;50.080;21.992;2023-07-02T10:18:38;8.10;;;6.50;;
65871;SDS011;52653;50.080;21.992;2023-07-02T10:21:16;8.20;;;6.50;;
65871;SDS011;52653;50.080;21.992;2023-07-02T10:23:50;9.20;;;6.70;;
65871;SDS011;52653;50.080;21.992;2023-07-02T10:26:23;8.70;;;6.60;;
65871;SDS011;52653;50.080;21.992;2023-07-02T10:29:06;9.40;;;6.90;;
65871;SDS011;52653;50.080;21.992;2023-07-02T10:31:49;8.40;;;6.70;;
65871;SDS011;52653;50.080;21.992;2023-07-02T10:34:30;12.40;;;6.80;;
65871;SDS011;52653;50.080;21.992;2023-07-02T10:37:06;8.00;;;6.50;;
65871;SDS011;52653;50.080;21.992;2023-07-02T10:39:39;9.30;;;6.50;;
65871;SDS011;52653;50.080;21.992;2023-07-02T10:42:14;7.50;;;5.90;;
65871;SDS011;52653;50.080;21.992;2023-07-02T10:44:51;11.40;;;6.80;;
65871;SDS011;52653;50.080;21.992;2023-07-02T10:47:24;11.00;;;6.30;;
65871;SDS011;52653;50.080;21.992;2023-07-02T10:49:59;8.10;;;5.90;;
65871;SDS011;52653;50.080;21.992;2023-07-02T10:52:38;9.70;;;6.10;;
65871;SDS011;52653;50.080;21.992;2023-07-02T10:55:10;7.10;;;5.40;;
65871;SDS011;52653;50.080;21.992;2023-07-02T10:58:02;8.40;;;6.10;;
65871;SDS011;52653;50.080;21.992;2023-07-02T11:00:44;9.30;;;5.70;;
65871;SDS011;52653;50.080;21.992;2023-07-02T11:03:17;7.60;;;5.70;;
65871;SDS011;52653;50.080;21.992;2023-07-02T11:05:51;7.20;;;5.80;;
65871;SDS011;52653;50.080;21.992;2023-07-02T11:08:25;6.80;;;5.00;;
65871;SDS011;52653;50.080;21.992;2023-07-02T11:11:07;10.00;;;5.40;;
65871;SDS011;52653;50.080;21.992;2023-07-02T11:13:45;7.50;;;5.00;;
65871;SDS011;52653;50.080;21.992;2023-07-02T11:16:22;7.90;;;4.50;;
65871;SDS011;52653;50.080;21.992;2023-07-02T11:21:37;7.90;;;4.70;;
65871;SDS011;52653;50.080;21.992;2023-07-02T11:24:28;7.40;;;4.90;;
65871;SDS011;52653;50.080;21.992;2023-07-02T11:27:02;7.30;;;5.10;;
65871;SDS011;52653;50.080;21.992;2023-07-02T11:29:37;7.70;;;5.10;;
65871;SDS011;52653;50.080;21.992;2023-07-02T11:32:11;8.00;;;4.90;;
65871;SDS011;52653;50.080;21.992;2023-07-02T11:34:52;7.80;;;5.10;;
65871;SDS011;52653;50.080;21.992;2023-07-02T11:37:26;7.80;;;5.50;;
65871;SDS011;52653;50.080;21.992;2023-07-02T11:39:59;8.10;;;5.60;;
65871;SDS011;52653;50.080;21.992;2023-07-02T11:42:34;7.90;;;5.40;;
65871;SDS011;52653;50.080;21.992;2023-07-02T11:45:08;8.10;;;5.80;;
65871;SDS011;52653;50.080;21.992;2023-07-02T11:47:41;7.80;;;6.00;;
65871;SDS011;52653;50.080;21.992;2023-07-02T11:50:14;9.50;;;5.50;;
65871;SDS011;52653;50.080;21.992;2023-07-02T11:52:55;10.30;;;5.90;;
65871;SDS011;52653;50.080;21.992;2023-07-02T11:55:29;7.70;;;5.50;;
65871;SDS011;52653;50.080;21.992;2023-07-02T11:58:01;7.20;;;5.00;;
65871;SDS011;52653;50.080;21.992;2023-07-02T12:00:34;8.10;;;5.50;;
65871;SDS011;52653;50.080;21.992;2023-07-02T12:03:07;7.90;;;5.80;;
65871;SDS011;52653;50.080;21.992;2023-07-02T12:05:42;7.60;;;5.50;;
65871;SDS011;52653;50.080;21.992;2023-07-02T12:08:15;9.60;;;5.70;;
65871;SDS011;52653;50.080;21.992;2023-07-02T12:10:47;9.10;;;5.90;;
65871;SDS011;52653;50.080;21.992;2023-07-02T12:13:20;8.70;;;5.60;;
65871;SDS011;52653;50.080;21.992;2023-07-02T12:15:53;7.20;;;5.40;;
65871;SDS011;52653;50.080;21.992;2023-07-02T12:18:26;9.10;;;5.00;;
65871;SDS011;52653;50.080;21.992;2023-07-02T12:20:59;7.10;;;4.80;;
65871;SDS011;52653;50.080;21.992;2023-07-02T12:23:31;7.60;;;4.90;;
65871;SDS011;52653;50.080;21.992;2023-07-02T12:26:04;8.80;;;4.90;;
65871;SDS011;52653;50.080;21.992;2023-07-02T12:28:38;7.50;;;4.50;;
65871;SDS011;52653;50.080;21.992;2023-07-02T12:31:11;8.20;;;4.60;;
65871;SDS011;52653;50.080;21.992;2023-07-02T12:33:44;6.70;;;4.60;;
65871;SDS011;52653;50.080;21.992;2023-07-02T12:36:16;7.00;;;4.70;;
65871;SDS011;52653;50.080;21.992;2023-07-02T12:38:49;8.80;;;4.50;;
65871;SDS011;52653;50.080;21.992;2023-07-02T12:41:23;6.50;;;4.80;;
65871;SDS011;52653;50.080;21.992;2023-07-02T12:43:56;7.10;;;4.90;;
65871;SDS011;52653;50.080;21.992;2023-07-02T12:46:28;7.40;;;5.50;;
65871;SDS011;52653;50.080;21.992;2023-07-02T12:49:01;7.20;;;5.20;;
65871;SDS011;52653;50.080;21.992;2023-07-02T12:51:34;7.60;;;5.30;;
65871;SDS011;52653;50.080;21.992;2023-07-02T12:54:07;10.60;;;5.30;;
65871;SDS011;52653;50.080;21.992;2023-07-02T12:56:39;6.40;;;4.80;;
65871;SDS011;52653;50.080;21.992;2023-07-02T12:59:12;7.00;;;5.10;;
65871;SDS011;52653;50.080;21.992;2023-07-02T13:01:46;7.10;;;4.80;;
65871;SDS011;52653;50.080;21.992;2023-07-02T13:04:19;6.20;;;4.90;;
65871;SDS011;52653;50.080;21.992;2023-07-02T13:06:52;6.50;;;4.50;;
65871;SDS011;52653;50.080;21.992;2023-07-02T13:09:24;9.50;;;4.70;;
65871;SDS011;52653;50.080;21.992;2023-07-02T13:11:57;6.30;;;4.60;;
65871;SDS011;52653;50.080;21.992;2023-07-02T13:14:33;9.30;;;4.90;;
65871;SDS011;52653;50.080;21.992;2023-07-02T13:17:06;8.10;;;4.60;;
65871;SDS011;52653;50.080;21.992;2023-07-02T13:19:40;6.80;;;4.60;;
65871;SDS011;52653;50.080;21.992;2023-07-02T13:22:13;6.10;;;4.70;;
65871;SDS011;52653;50.080;21.992;2023-07-02T13:24:46;6.80;;;4.30;;
65871;SDS011;52653;50.080;21.992;2023-07-02T13:27:18;8.50;;;4.20;;
65871;SDS011;52653;50.080;21.992;2023-07-02T13:29:51;5.80;;;3.60;;
65871;SDS011;52653;50.080;21.992;2023-07-02T13:32:24;7.10;;;3.60;;
65871;SDS011;52653;50.080;21.992;2023-07-02T13:35:00;7.70;;;3.80;;
65871;SDS011;52653;50.080;21.992;2023-07-02T13:37:32;5.80;;;3.90;;
65871;SDS011;52653;50.080;21.992;2023-07-02T13:40:06;5.80;;;4.10;;
65871;SDS011;52653;50.080;21.992;2023-07-02T13:42:42;5.00;;;3.90;;
65871;SDS011;52653;50.080;21.992;2023-07-02T13:45:15;5.50;;;3.60;;
65871;SDS011;52653;50.080;21.992;2023-07-02T13:47:48;7.00;;;4.20;;
65871;SDS011;52653;50.080;21.992;2023-07-02T13:50:21;7.60;;;3.70;;
65871;SDS011;52653;50.080;21.992;2023-07-02T13:52:53;7.60;;;4.20;;
65871;SDS011;52653;50.080;21.992;2023-07-02T13:55:29;6.50;;;4.10;;
65871;SDS011;52653;50.080;21.992;2023-07-02T13:58:02;6.10;;;4.00;;
65871;SDS011;52653;50.080;21.992;2023-07-02T14:00:35;5.60;;;4.10;;
65871;SDS011;52653;50.080;21.992;2023-07-02T14:03:07;6.00;;;3.90;;
65871;SDS011;52653;50.080;21.992;2023-07-02T14:05:40;6.70;;;3.70;;
65871;SDS011;52653;50.080;21.992;2023-07-02T14:08:13;5.60;;;3.80;;
65871;SDS011;52653;50.080;21.992;2023-07-02T14:10:46;5.20;;;3.40;;
65871;SDS011;52653;50.080;21.992;2023-07-02T14:13:19;6.30;;;4.20;;
65871;SDS011;52653;50.080;21.992;2023-07-02T14:15:52;5.80;;;4.10;;
65871;SDS011;52653;50.080;21.992;2023-07-02T14:18:24;7.20;;;3.80;;
65871;SDS011;52653;50.080;21.992;2023-07-02T14:20:57;6.50;;;3.90;;
65871;SDS011;52653;50.080;21.992;2023-07-02T14:23:32;6.40;;;3.80;;
65871;SDS011;52653;50.080;21.992;2023-07-02T14:26:05;4.60;;;3.30;;
65871;SDS011;52653;50.080;21.992;2023-07-02T14:28:40;4.90;;;3.30;;
65871;SDS011;52653;50.080;21.992;2023-07-02T14:31:12;5.60;;;3.40;;
65871;SDS011;52653;50.080;21.992;2023-07-02T14:33:45;7.00;;;3.40;;
65871;SDS011;52653;50.080;21.992;2023-07-02T14:36:18;5.30;;;3.10;;
65871;SDS011;52653;50.080;21.992;2023-07-02T14:38:51;4.10;;;2.80;;
65871;SDS011;52653;50.080;21.992;2023-07-02T14:41:23;4.20;;;2.90;;
65871;SDS011;52653;50.080;21.992;2023-07-02T14:43:56;4.20;;;2.60;;
65871;SDS011;52653;50.080;21.992;2023-07-02T14:46:29;4.20;;;2.70;;
65871;SDS011;52653;50.080;21.992;2023-07-02T14:49:02;4.80;;;2.60;;
65871;SDS011;52653;50.080;21.992;2023-07-02T14:51:35;4.00;;;2.50;;
65871;SDS011;52653;50.080;21.992;2023-07-02T14:54:08;3.30;;;2.50;;
65871;SDS011;52653;50.080;21.992;2023-07-02T14:56:40;4.00;;;2.40;;
65871;SDS011;52653;50.080;21.992;2023-07-02T14:59:15;5.70;;;2.80;;
65871;SDS011;52653;50.080;21.992;2023-07-02T15:01:49;4.30;;;2.30;;
65871;SDS011;52653;50.080;21.992;2023-07-02T15:04:22;3.60;;;2.70;;